createdAt,value
2019-04-05T00:00:09.498Z,5.22
2019-04-05T00:05:16.855Z,5.21
2019-04-05T00:10:22.186Z,5.04
2019-04-05T00:15:27.863Z,5.19
2019-04-05T00:20:33.207Z,5.22
2019-04-05T00:25:39.079Z,5.21
2019-04-05T00:30:44.837Z,5.25
2019-04-05T00:35:50.179Z,5.26
2019-04-05T00:40:55.409Z,5.26
2019-04-05T00:46:00.814Z,5.24
2019-04-05T00:51:06.147Z,5.21
2019-04-05T00:56:11.511Z,5.21
2019-04-05T01:01:17.310Z,5.17
2019-04-05T01:06:23.857Z,5.16
2019-04-05T01:11:29.130Z,5.12
2019-04-05T01:16:35.135Z,5.05
2019-04-05T01:21:42.139Z,4.90
2019-04-05T01:26:49.548Z,4.96
2019-04-05T01:31:55.257Z,4.90
2019-04-05T01:37:01.380Z,4.94
2019-04-05T01:42:07.227Z,5.07
2019-04-05T01:47:12.813Z,5.16
2019-04-05T01:52:18.134Z,4.94
2019-04-05T01:57:23.439Z,4.79
2019-04-05T02:02:29.236Z,4.86
2019-04-05T02:07:34.528Z,4.96
2019-04-05T02:12:41.768Z,5.16
2019-04-05T02:17:47.260Z,5.16
2019-04-05T02:22:52.821Z,5.28
2019-04-05T02:27:59.014Z,5.09
2019-04-05T02:33:04.598Z,5.10
2019-04-05T02:38:09.941Z,5.31
2019-04-05T02:43:18.078Z,5.28
2019-04-05T02:48:24.312Z,5.34
2019-04-05T02:53:31.762Z,5.35
2019-04-05T02:58:38.839Z,5.15
2019-04-05T03:03:44.305Z,5.18
2019-04-05T03:08:50.083Z,5.06
2019-04-05T03:13:57.614Z,4.99
2019-04-05T03:19:10.331Z,5.15
2019-04-05T03:24:19.119Z,5.21
2019-04-05T03:29:25.172Z,5.19
2019-04-05T03:34:30.540Z,5.10
2019-04-05T03:39:35.963Z,5.04
2019-04-05T03:44:42.608Z,5.02
2019-04-05T03:49:48.417Z,4.99
2019-04-05T03:54:54.219Z,5.04
2019-04-05T03:59:59.811Z,5.21
2019-04-05T04:05:05.669Z,5.28
2019-04-05T04:10:16.620Z,5.21
2019-04-05T04:15:22.032Z,5.11
2019-04-05T04:20:40.796Z,5.10
2019-04-05T04:25:46.401Z,5.07
2019-04-05T04:30:52.471Z,5.10
2019-04-05T04:35:57.836Z,5.15
2019-04-05T04:41:03.550Z,5.08
2019-04-05T04:46:09.541Z,5.08
2019-04-05T04:51:15.162Z,5.10
2019-04-05T04:56:20.799Z,5.14
2019-04-05T05:01:26.379Z,5.07
2019-04-05T05:06:31.779Z,4.97
2019-04-05T05:11:37.310Z,4.95
2019-04-05T05:16:43.198Z,5.08
2019-04-05T05:21:49.789Z,5.09
2019-04-05T05:26:55.293Z,5.08
2019-04-05T05:32:00.962Z,5.11
2019-04-05T05:37:06.504Z,5.19
2019-04-05T05:42:11.797Z,5.11
2019-04-05T05:47:17.032Z,5.25
2019-04-05T05:52:22.644Z,5.08
2019-04-05T05:57:27.938Z,5.04
2019-04-05T06:02:33.295Z,5.25
2019-04-05T06:07:39.096Z,5.37
2019-04-05T06:12:45.502Z,5.34
2019-04-05T06:18:03.823Z,5.43
2019-04-05T06:22:58.130Z,5.43
2019-04-05T06:28:03.350Z,5.43
2019-04-05T06:33:08.840Z,5.48
2019-04-05T06:38:14.538Z,5.54
2019-04-05T06:43:19.760Z,5.70
2019-04-05T06:48:25.082Z,5.71
2019-04-05T06:53:30.324Z,5.81
2019-04-05T06:58:35.832Z,5.73
2019-04-05T07:03:41.094Z,5.75
2019-04-05T07:08:53.683Z,5.72
2019-04-05T07:13:53.774Z,5.72
2019-04-05T07:18:59.011Z,5.98
2019-04-05T07:24:04.342Z,6.18
2019-04-05T07:29:10.848Z,6.34
2019-04-05T07:34:16.611Z,6.47
2019-04-05T07:39:22.026Z,6.58
2019-04-05T07:44:27.289Z,6.61
2019-04-05T07:49:32.781Z,6.73
2019-04-05T07:54:38.104Z,6.75
2019-04-05T07:59:43.415Z,6.81
2019-04-05T08:04:49.182Z,6.97
2019-04-05T08:09:56.258Z,7.02
2019-04-05T08:15:02.220Z,7.27
2019-04-05T08:20:07.666Z,7.42
2019-04-05T08:25:13.264Z,7.50
2019-04-05T08:33:09.600Z,7.77
2019-04-05T08:38:15.011Z,7.82
2019-04-05T08:43:20.581Z,7.77
2019-04-05T08:48:25.882Z,7.77
2019-04-05T08:53:31.129Z,7.80
2019-04-05T08:58:36.342Z,7.79
2019-04-05T09:03:41.807Z,8.09
2019-04-05T09:08:47.110Z,7.85
2019-04-05T09:13:52.723Z,8.01
2019-04-05T09:18:57.986Z,8.20
2019-04-05T09:24:03.225Z,8.13
2019-04-05T09:29:09.408Z,8.35
2019-04-05T09:34:15.220Z,8.41
2019-04-05T09:39:20.884Z,8.62
2019-04-05T09:44:26.305Z,8.70
2019-04-05T09:49:37.074Z,8.88
2019-04-05T09:54:39.072Z,8.59
2019-04-05T09:59:44.309Z,8.97
2019-04-05T10:04:49.983Z,8.96
2019-04-05T10:09:55.297Z,8.89
2019-04-05T10:16:14.257Z,8.95
2019-04-05T10:21:19.554Z,8.78
2019-04-05T10:26:25.123Z,8.45
2019-04-05T10:31:30.800Z,8.51
2019-04-05T10:36:36.401Z,8.63
2019-04-05T10:41:42.031Z,8.66
2019-04-05T10:46:47.491Z,8.41
2019-04-05T10:51:52.973Z,8.51
2019-04-05T10:56:58.343Z,8.48
2019-04-05T11:02:03.813Z,8.46
2019-04-05T11:07:09.243Z,8.43
2019-04-05T11:12:14.673Z,8.45
2019-04-05T11:17:20.029Z,8.69
2019-04-05T11:22:25.475Z,8.44
2019-04-05T11:27:30.972Z,8.86
2019-04-05T11:32:36.686Z,8.90
2019-04-05T11:37:42.077Z,8.97
2019-04-05T11:42:48.814Z,9.12
2019-04-05T11:47:55.681Z,9.12
2019-04-05T11:53:03.092Z,9.20
2019-04-05T11:58:08.367Z,9.18
2019-04-05T12:03:14.039Z,9.32
2019-04-05T12:08:19.456Z,9.42
2019-04-05T12:13:24.712Z,9.52
2019-04-05T12:18:30.028Z,9.27
2019-04-05T12:23:35.370Z,9.31
2019-04-05T12:28:41.026Z,9.25
2019-04-05T12:33:47.041Z,9.51
2019-04-05T12:38:54.172Z,9.12
2019-04-05T12:44:00.674Z,9.16
2019-04-05T12:49:06.698Z,9.10
2019-04-05T12:54:12.040Z,9.19
2019-04-05T12:59:17.315Z,9.13
2019-04-05T13:04:22.891Z,9.08
2019-04-05T13:09:28.659Z,9.13
2019-04-05T13:14:34.065Z,9.27
2019-04-05T13:19:39.692Z,9.18
2019-04-05T13:24:45.369Z,9.12
2019-04-05T13:29:51.026Z,9.09
2019-04-05T13:34:56.500Z,9.06
2019-04-05T13:40:06.248Z,8.96
2019-04-05T13:45:11.579Z,9.08
2019-04-05T13:50:19.419Z,9.11
2019-04-05T13:55:24.191Z,9.21
2019-04-05T14:00:29.522Z,9.30
2019-04-05T14:05:35.315Z,9.19
2019-04-05T14:10:41.936Z,9.24
2019-04-05T14:15:47.178Z,9.30
2019-04-05T14:20:52.838Z,9.31
2019-04-05T14:25:59.913Z,9.30
2019-04-05T14:31:05.692Z,9.23
2019-04-05T14:36:11.093Z,9.23
2019-04-05T14:41:17.162Z,9.29
2019-04-05T14:46:22.451Z,9.21
2019-04-05T14:51:28.655Z,9.11
2019-04-05T14:56:36.557Z,9.16
2019-04-05T15:01:42.168Z,9.24
2019-04-05T15:06:48.645Z,9.17
2019-04-05T15:11:56.453Z,9.11
2019-04-05T15:17:02.864Z,9.16
2019-04-05T15:22:10.902Z,9.05
2019-04-05T15:27:15.293Z,9.04
2019-04-05T15:32:20.972Z,9.05
2019-04-05T15:37:26.542Z,8.93
2019-04-05T15:42:32.007Z,9.01
2019-04-05T15:47:39.394Z,8.93
2019-04-05T15:52:45.179Z,8.90
2019-04-05T15:57:50.683Z,8.92
2019-04-05T16:02:56.212Z,8.80
2019-04-05T16:08:01.766Z,8.88
2019-04-05T16:13:08.247Z,8.79
2019-04-05T16:18:14.607Z,8.78
2019-04-05T16:23:19.919Z,8.74
2019-04-05T16:28:25.266Z,8.76
2019-04-05T16:33:30.603Z,8.72
2019-04-05T16:38:36.365Z,8.74
2019-04-05T16:43:41.678Z,8.61
2019-04-05T16:48:47.040Z,8.61
2019-04-05T16:54:03.224Z,8.63
2019-04-05T16:59:08.979Z,8.63
2019-04-05T17:04:14.815Z,8.65
2019-04-05T17:09:20.704Z,8.55
2019-04-05T17:14:25.933Z,8.50
2019-04-05T17:19:31.640Z,8.61
2019-04-05T17:24:37.262Z,8.52
2019-04-05T17:29:42.668Z,8.57
2019-04-05T17:34:48.664Z,8.44
2019-04-05T17:39:54.585Z,8.37
2019-04-05T17:45:00.006Z,8.39
2019-04-05T17:50:05.838Z,8.25
2019-04-05T17:55:12.071Z,8.35
2019-04-05T18:00:21.910Z,8.21
2019-04-05T18:05:27.213Z,8.28
2019-04-05T18:10:32.691Z,8.23
2019-04-05T18:15:46.683Z,8.13
2019-04-05T18:20:45.810Z,8.14
2019-04-05T18:25:51.169Z,8.13
2019-04-05T18:30:56.569Z,8.24
2019-04-05T18:36:01.976Z,8.28
2019-04-05T18:41:07.309Z,8.13
2019-04-05T18:46:12.681Z,8.11
2019-04-05T18:51:18.298Z,8.03
2019-04-05T18:56:23.772Z,8.07
2019-04-05T19:01:29.079Z,8.12
2019-04-05T19:06:34.419Z,8.23
2019-04-05T19:11:39.771Z,8.11
2019-04-05T19:16:45.174Z,8.00
2019-04-05T19:21:52.194Z,8.08
2019-04-05T19:26:57.453Z,8.10
2019-04-05T19:52:34.271Z,8.04
2019-04-05T19:57:39.581Z,8.04
2019-04-05T20:02:44.901Z,7.95
2019-04-05T20:07:50.447Z,7.93
2019-04-05T20:12:55.826Z,8.01
2019-04-05T20:18:01.505Z,7.89
2019-04-05T20:23:07.389Z,8.01
2019-04-05T20:28:13.142Z,8.04
2019-04-05T20:33:18.561Z,7.95
2019-04-05T20:38:26.716Z,8.04
2019-04-05T20:43:32.218Z,8.01
2019-04-05T20:48:37.699Z,7.93
2019-04-05T20:53:44.450Z,7.99
2019-04-05T20:58:50.584Z,8.02
2019-04-05T21:03:56.892Z,8.07
2019-04-05T21:09:02.595Z,8.06
2019-04-05T21:14:10.545Z,7.95
2019-04-05T21:19:16.231Z,8.06
2019-04-05T21:24:21.969Z,8.14
2019-04-05T21:29:29.436Z,8.02
2019-04-05T21:34:35.129Z,8.17
2019-04-05T21:39:41.185Z,8.05
2019-04-05T21:44:46.617Z,8.00
2019-04-05T21:49:52.901Z,7.98
2019-04-05T21:54:58.890Z,7.94
2019-04-05T22:00:08.733Z,8.05
2019-04-05T22:05:15.889Z,8.07
2019-04-05T22:10:21.410Z,8.09
2019-04-05T22:15:26.836Z,8.06
2019-04-05T22:20:32.311Z,8.04
2019-04-05T22:25:37.663Z,8.02
2019-04-05T22:30:43.018Z,8.01
2019-04-05T22:35:48.686Z,8.05
2019-04-05T22:40:54.093Z,8.16
2019-04-05T22:45:59.741Z,8.08
2019-04-05T22:51:05.062Z,8.11
2019-04-05T22:56:10.326Z,8.09
2019-04-05T23:01:15.750Z,8.18
2019-04-05T23:06:21.465Z,8.05
2019-04-05T23:11:26.772Z,8.11
2019-04-05T23:16:32.293Z,8.10
2019-04-05T23:21:38.281Z,8.11
2019-04-05T23:26:43.640Z,8.02
2019-04-05T23:31:49.020Z,8.08
2019-04-05T23:36:54.584Z,8.04
2019-04-05T23:41:59.825Z,8.08
2019-04-05T23:47:05.168Z,8.14
2019-04-05T23:52:10.430Z,8.06
2019-04-05T23:57:16.083Z,8.12
